메인 페이지
METAR-TAF:

METAR-TAF

공항 :

루안다 콰트루 드 페베레이루 공항

루안다, 앙골라

위도: 08-51S, 경도: 013-14E, 고도: 74m

현재 날씨관측

예보는 40분 전, 09:00시(UTC)에 발표되었습니다.
4kt
온도 25°C
습도 69%
기압 1016 hPa
시정 10km 이상
고도 1900ft 상공 구름 조금
고도 2000ft 상공 구름 많음

METAR: FNLU 200900Z 17004KT 9999 FEW019 BKN020 25/19 Q1016 NOSIG

시각: 10:40 (09:40 UTC)

예보

예보는 4 시간 55분 전, 04:45시(UTC)에 발표되었습니다.
예보 대상 시간: 20일 06시부터 21일 12시까지 (UTC)
남남동5kt
시정: 7000m
고도 1700ft 상공 구름 조금
고도 2200ft 상공 구름 많음
전환 중
20일 10시부터 20일 12시까지 (UTC)
서북서8kt
시정: 8000m
고도 2000ft 상공 구름 조금
고도 2300ft 상공 구름 많음
일시적
20일 13시부터 20일 17시까지 (UTC)
10kt
시정 10km 이상
고도 2300ft 상공 구름 조금
전환 중
20일 20시부터 20일 22시까지 (UTC)
남서6kt
시정: 8000m
고도 2200ft 상공 구름 보통
일시적
21일 04시부터 21일 08시까지 (UTC)
여러 방향의 바람 3kt
시정: 3000m
고도 1400ft 상공 구름 보통
고도 2000ft 상공 흐림
박무

TAF: FNLU 200445Z 2006/2112 16005KT 7000 FEW017 BKN022 BECMG 2010/2012 29008KT 8000 FEW020 BKN023 TEMPO 2013/2017 26010KT 9999 FEW023 BECMG 2020/2022 22006KT 8000 SCT022 TEMPO 2104/2108 VRB03KT 3000 BR SCT014 OVC020

4,000개 이상의 공항 관측 자료 및 예보 (METAR 및 TAF 보고).

지도상에서 검색 가능한 기상관측소가 노란 점과 빨간 점으로 표시되어 있습니다.

기상관측소 명을 보려면 표시 위로 마우스를 이동하세요.

날씨 관측과 예보를 보려면 클릭하세요.

지도 변경 : 확대하려면 엑스 표시가 있는 녹색 버튼, 축소하려면 빼기 표시가 있는 녹색 버튼, 다음 페이지의 지도를 보려면 녹색 화살표를 클릭하세요.


METAR-TAF: